sensor_id;sensor_type;location;lat;lon;timestamp;noise_LAeq;noise_LA_min;noise_LA_max;noise_LA01;noise_LA95
67320;Laerm;57665;51.436;5.978;2023-07-20T00:00:01;38.18;37.27;39.15;;
67320;Laerm;57665;51.436;5.978;2023-07-20T00:00:20;38.57;37.01;42.82;;
67320;Laerm;57665;51.436;5.978;2023-07-20T00:00:31;38.17;37.08;39.17;;
67320;Laerm;57665;51.436;5.978;2023-07-20T00:01:17;38.27;37.22;39.30;;
67320;Laerm;57665;51.436;5.978;2023-07-20T00:01:36;38.29;37.20;39.72;;
67320;Laerm;57665;51.436;5.978;2023-07-20T00:02:06;38.25;37.32;39.38;;
67320;Laerm;57665;51.436;5.978;2023-07-20T00:02:20;38.23;37.21;39.19;;
67320;Laerm;57665;51.436;5.978;2023-07-20T00:02:31;38.24;37.28;39.15;;
67320;Laerm;57665;51.436;5.978;2023-07-20T00:02:49;38.29;37.42;39.13;;
67320;Laerm;57665;51.436;5.978;2023-07-20T00:03:13;38.33;37.21;39.50;;
67320;Laerm;57665;51.436;5.978;2023-07-20T00:03:26;38.31;37.37;39.33;;
67320;Laerm;57665;51.436;5.978;2023-07-20T00:03:37;38.28;36.95;39.54;;
67320;Laerm;57665;51.436;5.978;2023-07-20T00:04:05;38.36;37.24;39.26;;
67320;Laerm;57665;51.436;5.978;2023-07-20T00:04:15;38.34;37.36;39.68;;
67320;Laerm;57665;51.436;5.978;2023-07-20T00:04:31;38.31;37.26;39.41;;
67320;Laerm;57665;51.436;5.978;2023-07-20T00:04:42;38.41;37.42;39.22;;
67320;Laerm;57665;51.436;5.978;2023-07-20T00:04:55;38.37;37.28;39.25;;
67320;Laerm;57665;51.436;5.978;2023-07-20T00:05:09;38.37;37.38;39.25;;
67320;Laerm;57665;51.436;5.978;2023-07-20T00:05:19;38.35;37.30;39.43;;
67320;Laerm;57665;51.436;5.978;2023-07-20T00:05:31;38.40;37.33;39.55;;
67320;Laerm;57665;51.436;5.978;2023-07-20T00:05:51;38.43;37.39;39.73;;
67320;Laerm;57665;51.436;5.978;2023-07-20T00:06:01;38.57;37.42;39.73;;
67320;Laerm;57665;51.436;5.978;2023-07-20T00:06:18;38.48;37.56;39.54;;
67320;Laerm;57665;51.436;5.978;2023-07-20T00:06:37;38.39;37.39;39.29;;
67320;Laerm;57665;51.436;5.978;2023-07-20T00:07:03;38.40;37.24;39.41;;
67320;Laerm;57665;51.436;5.978;2023-07-20T00:07:13;44.23;37.76;55.27;;
67320;Laerm;57665;51.436;5.978;2023-07-20T00:07:32;40.72;37.57;45.67;;
67320;Laerm;57665;51.436;5.978;2023-07-20T00:07:43;38.36;37.17;39.26;;
67320;Laerm;57665;51.436;5.978;2023-07-20T00:07:53;38.31;37.44;39.24;;
67320;Laerm;57665;51.436;5.978;2023-07-20T00:08:04;38.26;37.29;39.03;;
67320;Laerm;57665;51.436;5.978;2023-07-20T00:08:31;38.29;37.27;39.25;;
67320;Laerm;57665;51.436;5.978;2023-07-20T00:08:51;38.41;37.16;49.58;;
67320;Laerm;57665;51.436;5.978;2023-07-20T00:09:01;38.30;37.29;39.37;;
67320;Laerm;57665;51.436;5.978;2023-07-20T00:09:15;38.28;37.32;39.16;;
67320;Laerm;57665;51.436;5.978;2023-07-20T00:09:25;38.34;37.23;39.33;;
67320;Laerm;57665;51.436;5.978;2023-07-20T00:09:35;38.32;37.29;39.44;;
67320;Laerm;57665;51.436;5.978;2023-07-20T00:09:46;38.37;37.33;39.13;;
67320;Laerm;57665;51.436;5.978;2023-07-20T00:10:11;38.31;37.28;39.53;;
67320;Laerm;57665;51.436;5.978;2023-07-20T00:10:21;38.35;37.11;39.40;;
67320;Laerm;57665;51.436;5.978;2023-07-20T00:10:34;38.31;37.37;39.19;;
67320;Laerm;57665;51.436;5.978;2023-07-20T00:10:44;38.25;37.34;39.21;;
67320;Laerm;57665;51.436;5.978;2023-07-20T00:11:00;38.25;37.27;38.96;;
67320;Laerm;57665;51.436;5.978;2023-07-20T00:11:10;38.30;37.02;39.30;;
67320;Laerm;57665;51.436;5.978;2023-07-20T00:11:25;38.30;37.34;39.17;;
67320;Laerm;57665;51.436;5.978;2023-07-20T00:11:36;38.29;37.25;39.25;;
67320;Laerm;57665;51.436;5.978;2023-07-20T00:11:50;38.47;37.46;39.92;;
67320;Laerm;57665;51.436;5.978;2023-07-20T00:12:07;38.47;37.55;39.46;;
67320;Laerm;57665;51.436;5.978;2023-07-20T00:12:17;38.39;37.42;39.36;;
67320;Laerm;57665;51.436;5.978;2023-07-20T00:12:27;38.41;37.46;39.32;;
67320;Laerm;57665;51.436;5.978;2023-07-20T00:12:38;38.34;37.22;39.23;;
67320;Laerm;57665;51.436;5.978;2023-07-20T00:13:13;38.25;37.12;39.45;;
67320;Laerm;57665;51.436;5.978;2023-07-20T00:13:28;38.19;36.97;39.24;;
67320;Laerm;57665;51.436;5.978;2023-07-20T00:13:54;38.17;37.17;39.07;;
67320;Laerm;57665;51.436;5.978;2023-07-20T00:14:13;38.51;37.42;39.76;;
67320;Laerm;57665;51.436;5.978;2023-07-20T00:14:23;38.86;37.12;40.08;;
67320;Laerm;57665;51.436;5.978;2023-07-20T00:14:57;38.18;36.87;39.10;;
67320;Laerm;57665;51.436;5.978;2023-07-20T00:15:15;38.20;37.21;38.99;;
67320;Laerm;57665;51.436;5.978;2023-07-20T00:15:26;38.14;37.25;39.02;;
67320;Laerm;57665;51.436;5.978;2023-07-20T00:15:54;38.10;37.10;39.12;;
67320;Laerm;57665;51.436;5.978;2023-07-20T00:16:05;38.08;36.89;39.27;;
67320;Laerm;57665;51.436;5.978;2023-07-20T00:16:27;38.05;36.85;38.97;;
67320;Laerm;57665;51.436;5.978;2023-07-20T00:16:46;38.09;37.24;38.99;;
67320;Laerm;57665;51.436;5.978;2023-07-20T00:17:13;38.12;37.18;39.04;;
67320;Laerm;57665;51.436;5.978;2023-07-20T00:17:23;38.07;37.05;39.00;;
67320;Laerm;57665;51.436;5.978;2023-07-20T00:17:34;38.09;36.90;39.13;;
67320;Laerm;57665;51.436;5.978;2023-07-20T00:17:44;38.17;37.18;39.10;;
67320;Laerm;57665;51.436;5.978;2023-07-20T00:18:01;38.04;37.08;38.82;;
67320;Laerm;57665;51.436;5.978;2023-07-20T00:18:11;37.95;37.01;39.20;;
67320;Laerm;57665;51.436;5.978;2023-07-20T00:18:21;38.01;37.12;38.89;;
67320;Laerm;57665;51.436;5.978;2023-07-20T00:18:32;38.05;37.21;38.94;;
67320;Laerm;57665;51.436;5.978;2023-07-20T00:18:42;41.42;37.81;46.24;;
67320;Laerm;57665;51.436;5.978;2023-07-20T00:18:52;38.13;37.11;39.13;;
67320;Laerm;57665;51.436;5.978;2023-07-20T00:19:03;37.95;37.09;39.08;;
67320;Laerm;57665;51.436;5.978;2023-07-20T00:19:52;37.95;36.92;39.09;;
67320;Laerm;57665;51.436;5.978;2023-07-20T00:20:02;38.08;37.13;38.93;;
67320;Laerm;57665;51.436;5.978;2023-07-20T00:20:15;38.14;36.99;39.27;;
67320;Laerm;57665;51.436;5.978;2023-07-20T00:20:25;38.03;36.83;39.12;;
67320;Laerm;57665;51.436;5.978;2023-07-20T00:20:38;37.91;36.75;38.86;;
67320;Laerm;57665;51.436;5.978;2023-07-20T00:20:48;37.92;36.95;38.89;;
67320;Laerm;57665;51.436;5.978;2023-07-20T00:20:59;37.92;36.75;38.85;;
67320;Laerm;57665;51.436;5.978;2023-07-20T00:21:25;37.96;37.02;39.04;;
67320;Laerm;57665;51.436;5.978;2023-07-20T00:21:38;38.01;37.22;38.95;;
67320;Laerm;57665;51.436;5.978;2023-07-20T00:22:00;37.95;37.02;39.22;;
67320;Laerm;57665;51.436;5.978;2023-07-20T00:22:19;38.01;37.09;38.90;;
67320;Laerm;57665;51.436;5.978;2023-07-20T00:22:29;38.08;36.96;39.28;;
67320;Laerm;57665;51.436;5.978;2023-07-20T00:22:39;40.23;37.35;45.51;;
67320;Laerm;57665;51.436;5.978;2023-07-20T00:22:50;39.48;37.50;44.19;;
67320;Laerm;57665;51.436;5.978;2023-07-20T00:23:06;38.13;37.05;39.10;;
67320;Laerm;57665;51.436;5.978;2023-07-20T00:23:20;37.96;37.06;38.94;;
67320;Laerm;57665;51.436;5.978;2023-07-20T00:23:33;38.05;37.16;39.20;;
67320;Laerm;57665;51.436;5.978;2023-07-20T00:23:52;38.04;37.19;39.35;;
67320;Laerm;57665;51.436;5.978;2023-07-20T00:24:18;37.99;36.83;39.06;;
67320;Laerm;57665;51.436;5.978;2023-07-20T00:24:28;37.94;36.84;38.97;;
67320;Laerm;57665;51.436;5.978;2023-07-20T00:24:38;37.95;37.15;38.84;;
67320;Laerm;57665;51.436;5.978;2023-07-20T00:24:49;37.83;36.72;38.66;;
67320;Laerm;57665;51.436;5.978;2023-07-20T00:24:59;37.88;36.87;38.73;;
67320;Laerm;57665;51.436;5.978;2023-07-20T00:25:10;37.81;36.74;38.87;;
67320;Laerm;57665;51.436;5.978;2023-07-20T00:25:24;37.86;36.78;38.80;;
67320;Laerm;57665;51.436;5.978;2023-07-20T00:25:34;37.89;36.84;38.72;;
67320;Laerm;57665;51.436;5.978;2023-07-20T00:25:46;37.85;36.83;38.81;;
67320;Laerm;57665;51.436;5.978;2023-07-20T00:25:56;37.83;36.72;38.76;;
67320;Laerm;57665;51.436;5.978;2023-07-20T00:26:10;37.80;36.59;38.73;;
67320;Laerm;57665;51.436;5.978;2023-07-20T00:26:20;37.87;36.95;38.73;;
67320;Laerm;57665;51.436;5.978;2023-07-20T00:26:31;37.88;36.96;38.75;;
67320;Laerm;57665;51.436;5.978;2023-07-20T00:26:56;37.80;36.72;38.73;;
67320;Laerm;57665;51.436;5.978;2023-07-20T00:28:00;37.82;36.73;38.83;;
67320;Laerm;57665;51.436;5.978;2023-07-20T00:28:25;37.79;36.63;38.67;;
67320;Laerm;57665;51.436;5.978;2023-07-20T00:28:50;37.79;36.66;38.77;;
67320;Laerm;57665;51.436;5.978;2023-07-20T00:29:01;37.79;36.84;38.63;;
67320;Laerm;57665;51.436;5.978;2023-07-20T00:29:15;37.86;36.92;38.72;;
67320;Laerm;57665;51.436;5.978;2023-07-20T00:29:42;37.83;36.88;38.61;;
67320;Laerm;57665;51.436;5.978;2023-07-20T00:29:52;38.15;36.87;40.53;;
67320;Laerm;57665;51.436;5.978;2023-07-20T00:31:15;37.86;36.82;40.97;;
67320;Laerm;57665;51.436;5.978;2023-07-20T00:31:31;37.84;36.95;39.00;;
67320;Laerm;57665;51.436;5.978;2023-07-20T00:31:41;37.83;36.94;38.73;;
67320;Laerm;57665;51.436;5.978;2023-07-20T00:32:07;37.82;36.79;38.84;;
67320;Laerm;57665;51.436;5.978;2023-07-20T00:32:27;37.77;36.88;38.80;;
67320;Laerm;57665;51.436;5.978;2023-07-20T00:32:37;37.87;36.65;38.91;;
67320;Laerm;57665;51.436;5.978;2023-07-20T00:32:50;37.83;36.79;38.69;;
67320;Laerm;57665;51.436;5.978;2023-07-20T00:33:16;37.79;36.90;38.61;;
67320;Laerm;57665;51.436;5.978;2023-07-20T00:33:42;37.78;36.82;38.91;;
67320;Laerm;57665;51.436;5.978;2023-07-20T00:33:55;37.85;36.84;39.55;;
67320;Laerm;57665;51.436;5.978;2023-07-20T00:34:06;37.84;36.94;38.79;;
67320;Laerm;57665;51.436;5.978;2023-07-20T00:34:16;37.83;36.74;38.76;;
67320;Laerm;57665;51.436;5.978;2023-07-20T00:34:26;37.77;36.89;38.66;;
67320;Laerm;57665;51.436;5.978;2023-07-20T00:34:44;37.77;36.66;38.60;;
67320;Laerm;57665;51.436;5.978;2023-07-20T00:35:03;37.79;36.73;38.75;;
67320;Laerm;57665;51.436;5.978;2023-07-20T00:36:46;37.73;36.86;38.59;;
67320;Laerm;57665;51.436;5.978;2023-07-20T00:36:58;37.73;36.71;38.78;;
67320;Laerm;57665;51.436;5.978;2023-07-20T00:37:16;37.79;36.62;38.76;;
67320;Laerm;57665;51.436;5.978;2023-07-20T00:37:26;37.93;36.94;38.75;;
67320;Laerm;57665;51.436;5.978;2023-07-20T00:37:42;37.93;36.94;38.81;;
67320;Laerm;57665;51.436;5.978;2023-07-20T00:37:52;37.84;36.80;38.80;;
67320;Laerm;57665;51.436;5.978;2023-07-20T00:38:18;38.04;36.52;39.05;;
67320;Laerm;57665;51.436;5.978;2023-07-20T00:38:28;65.31;37.64;75.91;;
67320;Laerm;57665;51.436;5.978;2023-07-20T00:38:41;39.53;37.57;41.61;;
67320;Laerm;57665;51.436;5.978;2023-07-20T00:38:51;38.14;36.77;40.76;;
67320;Laerm;57665;51.436;5.978;2023-07-20T00:39:11;38.05;37.09;39.01;;
67320;Laerm;57665;51.436;5.978;2023-07-20T00:39:30;37.88;36.62;38.93;;
67320;Laerm;57665;51.436;5.978;2023-07-20T00:39:43;37.89;36.67;39.02;;
67320;Laerm;57665;51.436;5.978;2023-07-20T00:39:56;37.69;36.54;38.47;;
67320;Laerm;57665;51.436;5.978;2023-07-20T00:40:07;37.81;36.77;38.90;;
67320;Laerm;57665;51.436;5.978;2023-07-20T00:41:02;37.63;36.37;38.93;;
67320;Laerm;57665;51.436;5.978;2023-07-20T00:41:12;37.67;36.58;38.64;;
67320;Laerm;57665;51.436;5.978;2023-07-20T00:41:29;37.71;36.67;38.77;;
67320;Laerm;57665;51.436;5.978;2023-07-20T00:41:39;37.69;36.43;38.65;;
67320;Laerm;57665;51.436;5.978;2023-07-20T00:42:05;37.62;36.65;38.52;;
67320;Laerm;57665;51.436;5.978;2023-07-20T00:42:15;37.66;36.64;38.66;;
67320;Laerm;57665;51.436;5.978;2023-07-20T00:42:34;37.61;36.62;38.42;;
67320;Laerm;57665;51.436;5.978;2023-07-20T00:42:45;37.68;36.59;38.65;;
67320;Laerm;57665;51.436;5.978;2023-07-20T00:43:01;37.66;36.76;38.45;;
67320;Laerm;57665;51.436;5.978;2023-07-20T00:43:12;37.66;36.51;38.56;;
67320;Laerm;57665;51.436;5.978;2023-07-20T00:43:30;37.78;36.60;39.04;;
67320;Laerm;57665;51.436;5.978;2023-07-20T00:43:41;37.71;36.79;38.77;;
67320;Laerm;57665;51.436;5.978;2023-07-20T00:44:00;37.67;36.73;38.48;;
67320;Laerm;57665;51.436;5.978;2023-07-20T00:44:10;37.69;36.71;38.65;;
67320;Laerm;57665;51.436;5.978;2023-07-20T00:44:24;37.69;36.87;38.68;;
67320;Laerm;57665;51.436;5.978;2023-07-20T00:44:37;37.62;36.58;38.68;;
67320;Laerm;57665;51.436;5.978;2023-07-20T00:45:10;37.63;36.48;38.69;;
67320;Laerm;57665;51.436;5.978;2023-07-20T00:45:26;37.68;36.31;42.96;;
67320;Laerm;57665;51.436;5.978;2023-07-20T00:45:36;37.69;36.75;38.49;;
67320;Laerm;57665;51.436;5.978;2023-07-20T00:45:57;37.65;36.63;38.42;;
67320;Laerm;57665;51.436;5.978;2023-07-20T00:46:07;37.65;36.58;38.58;;
67320;Laerm;57665;51.436;5.978;2023-07-20T00:46:22;37.67;36.82;38.47;;
67320;Laerm;57665;51.436;5.978;2023-07-20T00:46:42;37.64;36.41;38.68;;
67320;Laerm;57665;51.436;5.978;2023-07-20T00:46:54;37.66;36.53;38.71;;
67320;Laerm;57665;51.436;5.978;2023-07-20T00:47:07;37.69;36.56;38.80;;
67320;Laerm;57665;51.436;5.978;2023-07-20T00:47:17;37.73;36.80;38.84;;
67320;Laerm;57665;51.436;5.978;2023-07-20T00:47:28;37.76;36.67;38.77;;
67320;Laerm;57665;51.436;5.978;2023-07-20T00:47:38;37.70;36.71;38.55;;
67320;Laerm;57665;51.436;5.978;2023-07-20T00:47:58;37.67;36.77;38.70;;
67320;Laerm;57665;51.436;5.978;2023-07-20T00:48:09;37.72;36.69;38.89;;
67320;Laerm;57665;51.436;5.978;2023-07-20T00:48:27;37.69;36.51;38.63;;
67320;Laerm;57665;51.436;5.978;2023-07-20T00:48:37;37.72;36.46;40.23;;
67320;Laerm;57665;51.436;5.978;2023-07-20T00:49:08;37.64;36.69;38.65;;
67320;Laerm;57665;51.436;5.978;2023-07-20T00:49:19;37.66;36.75;38.91;;
67320;Laerm;57665;51.436;5.978;2023-07-20T00:49:32;37.58;36.55;38.69;;
67320;Laerm;57665;51.436;5.978;2023-07-20T00:49:43;37.58;36.68;38.27;;
67320;Laerm;57665;51.436;5.978;2023-07-20T00:50:02;37.61;36.68;38.45;;
67320;Laerm;57665;51.436;5.978;2023-07-20T00:50:13;37.62;36.40;38.65;;
67320;Laerm;57665;51.436;5.978;2023-07-20T00:50:24;37.50;36.48;38.43;;
67320;Laerm;57665;51.436;5.978;2023-07-20T00:50:40;37.48;36.53;39.97;;
67320;Laerm;57665;51.436;5.978;2023-07-20T00:51:06;37.52;36.42;38.40;;
67320;Laerm;57665;51.436;5.978;2023-07-20T00:51:16;37.53;36.54;38.45;;
67320;Laerm;57665;51.436;5.978;2023-07-20T00:51:30;37.59;36.29;38.47;;
67320;Laerm;57665;51.436;5.978;2023-07-20T00:51:42;37.61;36.66;38.42;;
67320;Laerm;57665;51.436;5.978;2023-07-20T00:52:12;37.55;36.35;38.58;;
67320;Laerm;57665;51.436;5.978;2023-07-20T00:52:26;37.55;36.56;38.58;;
67320;Laerm;57665;51.436;5.978;2023-07-20T00:52:37;37.56;36.53;38.57;;
67320;Laerm;57665;51.436;5.978;2023-07-20T00:52:52;37.54;36.42;38.41;;
67320;Laerm;57665;51.436;5.978;2023-07-20T00:53:03;37.71;36.69;38.86;;
67320;Laerm;57665;51.436;5.978;2023-07-20T00:53:15;37.57;36.47;38.40;;
67320;Laerm;57665;51.436;5.978;2023-07-20T00:53:26;37.64;36.51;38.76;;
67320;Laerm;57665;51.436;5.978;2023-07-20T00:53:36;37.63;36.81;38.50;;
67320;Laerm;57665;51.436;5.978;2023-07-20T00:53:56;37.73;36.56;39.90;;
67320;Laerm;57665;51.436;5.978;2023-07-20T00:54:06;38.51;36.73;44.41;;
67320;Laerm;57665;51.436;5.978;2023-07-20T00:54:17;38.74;36.70;43.96;;
67320;Laerm;57665;51.436;5.978;2023-07-20T00:54:42;38.11;36.78;40.76;;
67320;Laerm;57665;51.436;5.978;2023-07-20T00:55:01;37.79;36.55;38.85;;
67320;Laerm;57665;51.436;5.978;2023-07-20T00:55:23;37.72;36.67;38.80;;
67320;Laerm;57665;51.436;5.978;2023-07-20T00:55:45;37.59;36.72;38.47;;
67320;Laerm;57665;51.436;5.978;2023-07-20T00:55:56;37.56;36.55;38.56;;
67320;Laerm;57665;51.436;5.978;2023-07-20T00:56:06;37.47;36.35;38.27;;
67320;Laerm;57665;51.436;5.978;2023-07-20T00:56:22;37.52;36.54;38.49;;
67320;Laerm;57665;51.436;5.978;2023-07-20T00:56:44;37.45;36.59;38.43;;
67320;Laerm;57665;51.436;5.978;2023-07-20T00:56:55;37.47;36.46;38.45;;
67320;Laerm;57665;51.436;5.978;2023-07-20T00:57:11;37.45;36.26;38.28;;
67320;Laerm;57665;51.436;5.978;2023-07-20T00:57:23;37.48;36.63;38.31;;
67320;Laerm;57665;51.436;5.978;2023-07-20T00:57:38;37.52;36.58;38.47;;
67320;Laerm;57665;51.436;5.978;2023-07-20T00:57:48;37.49;36.52;38.46;;
67320;Laerm;57665;51.436;5.978;2023-07-20T00:58:08;37.51;36.36;38.64;;
67320;Laerm;57665;51.436;5.978;2023-07-20T00:58:21;37.56;36.52;38.44;;
67320;Laerm;57665;51.436;5.978;2023-07-20T00:58:31;37.54;36.38;38.42;;
67320;Laerm;57665;51.436;5.978;2023-07-20T00:58:42;37.43;36.70;38.32;;
67320;Laerm;57665;51.436;5.978;2023-07-20T00:59:03;37.49;36.16;38.45;;
67320;Laerm;57665;51.436;5.978;2023-07-20T00:59:14;37.47;36.43;38.56;;
67320;Laerm;57665;51.436;5.978;2023-07-20T00:59:34;37.46;36.62;38.32;;
67320;Laerm;57665;51.436;5.978;2023-07-20T00:59:44;37.45;36.57;38.47;;
67320;Laerm;57665;51.436;5.978;2023-07-20T01:00:05;37.45;36.29;38.49;;
67320;Laerm;57665;51.436;5.978;2023-07-20T01:00:16;37.86;36.61;41.39;;
67320;Laerm;57665;51.436;5.978;2023-07-20T01:00:33;37.42;36.53;38.47;;
67320;Laerm;57665;51.436;5.978;2023-07-20T01:00:51;37.44;36.47;38.78;;
67320;Laerm;57665;51.436;5.978;2023-07-20T01:01:13;37.49;36.37;41.35;;
67320;Laerm;57665;51.436;5.978;2023-07-20T01:01:24;37.45;36.38;38.43;;
67320;Laerm;57665;51.436;5.978;2023-07-20T01:01:37;37.38;36.40;38.40;;
67320;Laerm;57665;51.436;5.978;2023-07-20T01:01:47;37.46;36.56;38.33;;
67320;Laerm;57665;51.436;5.978;2023-07-20T01:02:19;37.43;36.30;38.37;;
67320;Laerm;57665;51.436;5.978;2023-07-20T01:02:31;37.43;36.48;38.45;;
67320;Laerm;57665;51.436;5.978;2023-07-20T01:02:53;37.45;36.29;38.37;;
67320;Laerm;57665;51.436;5.978;2023-07-20T01:03:12;37.38;36.07;38.79;;
67320;Laerm;57665;51.436;5.978;2023-07-20T01:03:22;37.66;36.74;38.79;;
67320;Laerm;57665;51.436;5.978;2023-07-20T01:03:33;37.50;36.44;38.93;;
67320;Laerm;57665;51.436;5.978;2023-07-20T01:03:50;37.45;36.40;38.32;;
67320;Laerm;57665;51.436;5.978;2023-07-20T01:04:06;37.47;36.43;38.30;;
67320;Laerm;57665;51.436;5.978;2023-07-20T01:04:16;37.42;36.60;38.25;;
67320;Laerm;57665;51.436;5.978;2023-07-20T01:04:39;37.69;36.69;39.85;;
67320;Laerm;57665;51.436;5.978;2023-07-20T01:04:58;37.41;36.62;38.47;;
67320;Laerm;57665;51.436;5.978;2023-07-20T01:05:15;37.38;36.32;39.13;;
67320;Laerm;57665;51.436;5.978;2023-07-20T01:05:48;37.31;36.36;38.51;;
67320;Laerm;57665;51.436;5.978;2023-07-20T01:06:36;37.31;36.12;38.31;;
67320;Laerm;57665;51.436;5.978;2023-07-20T01:06:58;37.29;36.36;38.21;;
67320;Laerm;57665;51.436;5.978;2023-07-20T01:07:25;37.33;36.16;38.35;;
67320;Laerm;57665;51.436;5.978;2023-07-20T01:07:46;37.36;36.29;38.27;;
67320;Laerm;57665;51.436;5.978;2023-07-20T01:08:03;37.36;36.39;38.50;;
67320;Laerm;57665;51.436;5.978;2023-07-20T01:08:17;39.22;36.50;44.66;;
67320;Laerm;57665;51.436;5.978;2023-07-20T01:10:18;37.33;36.17;38.39;;
67320;Laerm;57665;51.436;5.978;2023-07-20T01:10:51;37.38;36.24;38.38;;
67320;Laerm;57665;51.436;5.978;2023-07-20T01:11:13;37.28;36.29;38.26;;
67320;Laerm;57665;51.436;5.978;2023-07-20T01:11:46;37.35;36.22;38.41;;
67320;Laerm;57665;51.436;5.978;2023-07-20T01:13:09;37.30;36.34;41.30;;
67320;Laerm;57665;51.436;5.978;2023-07-20T01:13:51;37.36;36.26;38.32;;
67320;Laerm;57665;51.436;5.978;2023-07-20T01:14:11;37.35;36.50;38.23;;
67320;Laerm;57665;51.436;5.978;2023-07-20T01:14:34;37.46;36.35;38.44;;
67320;Laerm;57665;51.436;5.978;2023-07-20T01:14:44;37.35;36.22;38.55;;
67320;Laerm;57665;51.436;5.978;2023-07-20T01:15:00;37.27;36.40;38.03;;
67320;Laerm;57665;51.436;5.978;2023-07-20T01:15:19;37.34;36.41;38.20;;
67320;Laerm;57665;51.436;5.978;2023-07-20T01:15:30;37.31;36.28;38.16;;
67320;Laerm;57665;51.436;5.978;2023-07-20T01:15:48;37.26;36.47;38.14;;
67320;Laerm;57665;51.436;5.978;2023-07-20T01:16:04;37.50;36.35;39.70;;
67320;Laerm;57665;51.436;5.978;2023-07-20T01:16:14;37.49;36.46;38.56;;
67320;Laerm;57665;51.436;5.978;2023-07-20T01:16:24;37.46;36.08;38.25;;
67320;Laerm;57665;51.436;5.978;2023-07-20T01:16:59;37.35;36.17;38.45;;
67320;Laerm;57665;51.436;5.978;2023-07-20T01:17:09;37.43;36.24;38.45;;
67320;Laerm;57665;51.436;5.978;2023-07-20T01:17:28;37.28;36.30;38.24;;
67320;Laerm;57665;51.436;5.978;2023-07-20T01:17:50;37.29;36.23;38.12;;
67320;Laerm;57665;51.436;5.978;2023-07-20T01:18:00;37.31;36.05;38.39;;
67320;Laerm;57665;51.436;5.978;2023-07-20T01:18:17;37.31;36.24;38.27;;
67320;Laerm;57665;51.436;5.978;2023-07-20T01:18:44;37.36;36.24;38.40;;
67320;Laerm;57665;51.436;5.978;2023-07-20T01:18:57;37.35;35.75;38.49;;
67320;Laerm;57665;51.436;5.978;2023-07-20T01:19:16;37.35;36.46;38.31;;
67320;Laerm;57665;51.436;5.978;2023-07-20T01:19:32;37.33;36.06;38.50;;
67320;Laerm;57665;51.436;5.978;2023-07-20T01:19:45;37.38;36.15;38.34;;
67320;Laerm;57665;51.436;5.978;2023-07-20T01:20:12;37.26;36.33;38.33;;
67320;Laerm;57665;51.436;5.978;2023-07-20T01:20:41;37.32;36.33;38.37;;
67320;Laerm;57665;51.436;5.978;2023-07-20T01:24:04;37.32;36.26;38.39;;
67320;Laerm;57665;51.436;5.978;2023-07-20T01:25:21;37.29;36.07;38.35;;
67320;Laerm;57665;51.436;5.978;2023-07-20T01:26:38;37.36;36.37;38.25;;
67320;Laerm;57665;51.436;5.978;2023-07-20T01:27:09;37.41;36.42;38.52;;
67320;Laerm;57665;51.436;5.978;2023-07-20T01:31:55;37.22;36.22;38.52;;
67320;Laerm;57665;51.436;5.978;2023-07-20T01:32:36;37.29;36.30;38.21;;
67320;Laerm;57665;51.436;5.978;2023-07-20T01:32:46;37.35;36.26;38.42;;
67320;Laerm;57665;51.436;5.978;2023-07-20T01:32:57;37.39;36.46;38.54;;
67320;Laerm;57665;51.436;5.978;2023-07-20T01:34:12;37.41;36.15;44.51;;
67320;Laerm;57665;51.436;5.978;2023-07-20T01:34:30;37.20;35.92;38.30;;
67320;Laerm;57665;51.436;5.978;2023-07-20T01:34:51;37.23;36.26;38.32;;
67320;Laerm;57665;51.436;5.978;2023-07-20T01:35:07;37.22;35.57;38.31;;
67320;Laerm;57665;51.436;5.978;2023-07-20T01:35:26;37.19;36.10;37.96;;
67320;Laerm;57665;51.436;5.978;2023-07-20T01:35:47;37.26;36.25;38.23;;
67320;Laerm;57665;51.436;5.978;2023-07-20T01:35:58;37.24;36.18;38.42;;
67320;Laerm;57665;51.436;5.978;2023-07-20T01:36:21;37.30;36.14;38.44;;
67320;Laerm;57665;51.436;5.978;2023-07-20T01:36:50;37.23;36.25;38.39;;
67320;Laerm;57665;51.436;5.978;2023-07-20T01:37:10;37.25;36.20;38.27;;
67320;Laerm;57665;51.436;5.978;2023-07-20T01:37:20;37.22;36.22;38.08;;
67320;Laerm;57665;51.436;5.978;2023-07-20T01:37:37;37.25;36.26;38.12;;
67320;Laerm;57665;51.436;5.978;2023-07-20T01:37:48;37.25;35.97;38.24;;
67320;Laerm;57665;51.436;5.978;2023-07-20T01:38:12;37.27;36.16;38.12;;
67320;Laerm;57665;51.436;5.978;2023-07-20T01:38:25;37.27;36.18;38.40;;
67320;Laerm;57665;51.436;5.978;2023-07-20T01:38:36;37.31;36.36;38.42;;
67320;Laerm;57665;51.436;5.978;2023-07-20T01:39:05;37.21;36.11;38.14;;
67320;Laerm;57665;51.436;5.978;2023-07-20T01:39:56;37.15;36.01;38.34;;
67320;Laerm;57665;51.436;5.978;2023-07-20T01:40:52;37.18;36.06;38.69;;
67320;Laerm;57665;51.436;5.978;2023-07-20T01:41:12;37.15;35.93;38.20;;
67320;Laerm;57665;51.436;5.978;2023-07-20T01:41:25;37.18;36.16;38.29;;
67320;Laerm;57665;51.436;5.978;2023-07-20T01:41:47;37.18;36.16;38.09;;
67320;Laerm;57665;51.436;5.978;2023-07-20T01:41:58;37.19;35.42;38.13;;
67320;Laerm;57665;51.436;5.978;2023-07-20T01:42:22;37.26;36.19;38.42;;
67320;Laerm;57665;51.436;5.978;2023-07-20T01:43:00;37.30;35.72;38.27;;
67320;Laerm;57665;51.436;5.978;2023-07-20T01:43:30;37.22;36.01;38.27;;
67320;Laerm;57665;51.436;5.978;2023-07-20T01:43:43;37.10;36.22;38.30;;
67320;Laerm;57665;51.436;5.978;2023-07-20T01:44:08;37.14;36.06;38.05;;
67320;Laerm;57665;51.436;5.978;2023-07-20T01:44:18;37.09;36.10;38.21;;
67320;Laerm;57665;51.436;5.978;2023-07-20T01:44:41;37.05;36.08;38.08;;
67320;Laerm;57665;51.436;5.978;2023-07-20T01:44:52;37.04;35.98;38.04;;
67320;Laerm;57665;51.436;5.978;2023-07-20T01:45:08;37.04;36.09;38.13;;
67320;Laerm;57665;51.436;5.978;2023-07-20T01:45:30;37.06;35.95;38.07;;
67320;Laerm;57665;51.436;5.978;2023-07-20T01:45:40;37.06;35.95;38.16;;
67320;Laerm;57665;51.436;5.978;2023-07-20T01:45:59;37.03;36.08;38.03;;
67320;Laerm;57665;51.436;5.978;2023-07-20T01:46:18;37.15;36.11;38.57;;
67320;Laerm;57665;51.436;5.978;2023-07-20T01:46:28;37.03;35.93;38.17;;
67320;Laerm;57665;51.436;5.978;2023-07-20T01:47:49;37.00;35.89;38.16;;
67320;Laerm;57665;51.436;5.978;2023-07-20T01:49:13;37.03;35.78;38.06;;
67320;Laerm;57665;51.436;5.978;2023-07-20T01:49:35;36.95;35.93;37.75;;
67320;Laerm;57665;51.436;5.978;2023-07-20T01:50:31;37.03;35.97;39.48;;
67320;Laerm;57665;51.436;5.978;2023-07-20T01:50:41;37.04;35.99;37.89;;
67320;Laerm;57665;51.436;5.978;2023-07-20T01:50:54;37.03;35.83;38.03;;
67320;Laerm;57665;51.436;5.978;2023-07-20T01:51:06;37.01;36.00;38.08;;
67320;Laerm;57665;51.436;5.978;2023-07-20T01:51:19;37.02;35.66;37.90;;
67320;Laerm;57665;51.436;5.978;2023-07-20T01:51:35;36.97;36.03;37.88;;
67320;Laerm;57665;51.436;5.978;2023-07-20T01:51:55;37.01;36.03;38.14;;
67320;Laerm;57665;51.436;5.978;2023-07-20T01:52:29;37.05;36.03;37.92;;
67320;Laerm;57665;51.436;5.978;2023-07-20T01:53:00;37.12;36.19;38.07;;
67320;Laerm;57665;51.436;5.978;2023-07-20T01:53:35;37.68;36.10;40.43;;
67320;Laerm;57665;51.436;5.978;2023-07-20T01:53:46;37.12;36.13;38.07;;
67320;Laerm;57665;51.436;5.978;2023-07-20T01:53:56;37.15;36.16;37.98;;
67320;Laerm;57665;51.436;5.978;2023-07-20T01:54:18;37.09;36.22;38.05;;
67320;Laerm;57665;51.436;5.978;2023-07-20T01:54:40;37.04;36.06;38.07;;